地図

経路データ

SID SEASON NUMBER BASIN SUBBASIN NAME ISO_TIME NATURE LAT LON WMO_WIND WMO_PRES WMO_AGENCY TRACK_TYPE DIST2LAND LANDFALL IFLAG USA_AGENCY USA_ATCF_ID USA_LAT USA_LON USA_RECORD USA_STATUS USA_WIND USA_PRES USA_SSHS USA_R34_NE USA_R34_SE USA_R34_SW USA_R34_NW USA_R50_NE USA_R50_SE USA_R50_SW USA_R50_NW USA_R64_NE USA_R64_SE USA_R64_SW USA_R64_NW USA_POCI USA_ROCI USA_RMW USA_EYE TOKYO_LAT TOKYO_LON TOKYO_GRADE TOKYO_WIND TOKYO_PRES TOKYO_R50_DIR TOKYO_R50_LONG TOKYO_R50_SHORT TOKYO_R30_DIR TOKYO_R30_LONG TOKYO_R30_SHORT TOKYO_LAND CMA_LAT CMA_LON CMA_CAT CMA_WIND CMA_PRES HKO_LAT HKO_LON HKO_CAT HKO_WIND HKO_PRES NEWDELHI_LAT NEWDELHI_LON NEWDELHI_GRADE NEWDELHI_WIND NEWDELHI_PRES NEWDELHI_CI NEWDELHI_DP NEWDELHI_POCI REUNION_LAT REUNION_LON REUNION_TYPE REUNION_WIND REUNION_PRES REUNION_TNUM REUNION_CI REUNION_RMW REUNION_R34_NE REUNION_R34_SE REUNION_R34_SW REUNION_R34_NW REUNION_R50_NE REUNION_R50_SE REUNION_R50_SW REUNION_R50_NW REUNION_R64_NE REUNION_R64_SE REUNION_R64_SW REUNION_R64_NW BOM_LAT BOM_LON BOM_TYPE BOM_WIND BOM_PRES BOM_TNUM BOM_CI BOM_RMW BOM_R34_NE BOM_R34_SE BOM_R34_SW BOM_R34_NW BOM_R50_NE BOM_R50_SE BOM_R50_SW BOM_R50_NW BOM_R64_NE BOM_R64_SE BOM_R64_SW BOM_R64_NW BOM_ROCI BOM_POCI BOM_EYE BOM_POS_METHOD BOM_PRES_METHOD NADI_LAT NADI_LON NADI_CAT NADI_WIND NADI_PRES WELLINGTON_LAT WELLINGTON_LON WELLINGTON_WIND WELLINGTON_PRES DS824_LAT DS824_LON DS824_STAGE DS824_WIND DS824_PRES TD9636_LAT TD9636_LON TD9636_STAGE TD9636_WIND TD9636_PRES TD9635_LAT TD9635_LON TD9635_WIND TD9635_PRES TD9635_ROCI NEUMANN_LAT NEUMANN_LON NEUMANN_CLASS NEUMANN_WIND NEUMANN_PRES MLC_LAT MLC_LON MLC_CLASS MLC_WIND MLC_PRES USA_GUST BOM_GUST BOM_GUST_PER REUNION_GUST REUNION_GUST_PER USA_SEAHGT USA_SEARAD_NE USA_SEARAD_SE USA_SEARAD_SW USA_SEARAD_NW STORM_SPEED STORM_DIR
1977263N17251 1977 86 EP MM NOT_NAMED 1977-09-19 12:00:00 NR 17.0000 -109.400 main 527 527 O_________O___ jtwc_ep EP131977 17.0000 -109.400 25 -1 17.0000 -109.400 1 25 15 278
1977263N17251 1977 86 EP MM NOT_NAMED 1977-09-19 15:00:00 NR 17.1010 -110.151 main 592 592 P_________P___ EP131977 17.0830 -110.147 26 -1 17.1190 -110.155 1 26 15 279
1977263N17251 1977 86 EP MM NOT_NAMED 1977-09-19 18:00:00 NR 17.2247 -110.904 main 644 634 O_________P___ jtwc_ep EP131977 17.2000 -110.900 28 -1 17.2493 -110.908 1 27 15 281
1977263N17251 1977 86 EP MM NOT_NAMED 1977-09-19 21:00:00 NR 17.3911 -111.657 main 640 635 P_________P___ EP131977 17.3773 -111.658 28 -1 17.4050 -111.657 1 28 15 285
1977263N17251 1977 86 EP MM NOT_NAMED 1977-09-20 00:00:00 NR 17.6000 -112.400 main 643 641 O_________O___ jtwc_ep EP131977 17.6000 -112.400 29 -1 17.6000 -112.400 1 30 15 288
1977263N17251 1977 86 EP MM NOT_NAMED 1977-09-20 03:00:00 NR 17.8360 -113.127 main 655 650 P_________P___ EP131977 17.8273 -113.123 29 -1 17.8446 -113.131 1 30 14 291
1977263N17251 1977 86 EP MM NOT_NAMED 1977-09-20 06:00:00 NR 18.1163 -113.813 main 666 664 O_________P___ jtwc_ep EP131977 18.1000 -113.800 30 -1 18.1326 -113.827 1 30 14 296
1977263N17251 1977 86 EP MM NOT_NAMED 1977-09-20 09:00:00 NR 18.4408 -114.452 main 687 678 P_________P___ EP131977 18.4274 -114.445 30 -1 18.4543 -114.459 1 30 13 301
1977263N17251 1977 86 EP MM NOT_NAMED 1977-09-20 12:00:00 NR 18.8000 -115.000 main 692 692 O_________O___ jtwc_ep EP131977 18.8000 -115.000 30 -1 18.8000 -115.000 1 30 12 308
1977263N17251 1977 86 EP MM NOT_NAMED 1977-09-20 15:00:00 NR 19.1802 -115.452 main 704 688 P_________P___ EP131977 19.1998 -115.453 30 -1 19.1605 -115.451 1 30 11 315
1977263N17251 1977 86 EP MM NOT_NAMED 1977-09-20 18:00:00 NR 19.5707 -115.804 main 685 669 O_________P___ jtwc_ep EP131977 19.6000 -115.800 30 -1 19.5413 -115.808 1 30 10 322
1977263N17251 1977 86 EP MM NOT_NAMED 1977-09-20 21:00:00 NR 19.9457 -116.087 main 676 654 P_________P___ EP131977 19.9649 -116.088 30 -1 19.9265 -116.085 1 30 9 327
1977263N17251 1977 86 EP MM NOT_NAMED 1977-09-21 00:00:00 NR 20.3000 -116.300 main 654 643 O_________O___ jtwc_ep EP131977 20.3000 -116.300 30 -1 20.3000 -116.300 1 30 8 330
1977263N17251 1977 86 EP MM NOT_NAMED 1977-09-21 03:00:00 NR 20.6175 -116.494 main 643 626 P_________P___ EP131977 20.6000 -116.473 30 -1 20.6350 -116.515 1 30 7 334
1977263N17251 1977 86 EP MM NOT_NAMED 1977-09-21 06:00:00 NR 20.9286 -116.635 main 626 611 O_________P___ jtwc_ep EP131977 20.9000 -116.600 30 -1 20.9571 -116.670 1 30 7 340
1977263N17251 1977 86 EP MM NOT_NAMED 1977-09-21 09:00:00 NR 21.2591 -116.744 main 603 590 P_________P___ EP131977 21.2425 -116.722 30 -1 21.2757 -116.765 1 30 7 347
1977263N17251 1977 86 EP MM NOT_NAMED 1977-09-21 12:00:00 NR 21.6000 -116.800 main 590 570 O_________O___ jtwc_ep EP131977 21.6000 -116.800 30 -1 21.6000 -116.800 1 30 7 353
1977263N17251 1977 86 EP MM NOT_NAMED 1977-09-21 15:00:00 NR 21.9442 -116.826 main 570 545 P_________P___ EP131977 21.9500 -116.837 28 -1 21.9385 -116.815 1 28 7 0
1977263N17251 1977 86 EP MM NOT_NAMED 1977-09-21 18:00:00 NR 22.2923 -116.785 main 545 519 O_________P___ jtwc_ep EP131977 22.3000 -116.800 27 -1 22.2847 -116.770 1 27 7 11
1977263N17251 1977 86 EP MM NOT_NAMED 1977-09-21 21:00:00 NR 22.6442 -116.680 main 519 480 P_________P___ EP131977 22.6499 -116.695 26 -1 22.6385 -116.665 1 26 8 20
1977263N17251 1977 86 EP MM NOT_NAMED 1977-09-22 00:00:00 NR 23.0000 -116.500 main 480 444 O_________O___ jtwc_ep EP131977 23.0000 -116.500 25 -1 23.0000 -116.500 1 25 8 29
1977263N17251 1977 86 EP MM NOT_NAMED 1977-09-22 03:00:00 NR 23.3757 -116.245 main 434 404 P_________P___ EP131977 23.3426 -116.215 25 -1 23.4087 -116.275 1 25 9 34
1977263N17251 1977 86 EP MM NOT_NAMED 1977-09-22 06:00:00 NR 23.7590 -115.948 main 391 358 O_________P___ jtwc_ep EP131977 23.7000 -115.900 25 -1 23.8179 -115.997 1 25 9 34
1977263N17251 1977 86 EP MM NOT_NAMED 1977-09-22 09:00:00 NR 24.1578 -115.668 main 349 304 P_________P___ EP131977 24.1224 -115.643 25 -1 24.1931 -115.694 1 25 9 34
1977263N17251 1977 86 EP MM NOT_NAMED 1977-09-22 12:00:00 NR 24.5000 -115.400 main 304 274 O_________O___ jtwc_ep EP131977 24.5000 -115.400 25 -1 24.5000 -115.400 1 25 8 40
1977263N17251 1977 86 EP MM NOT_NAMED 1977-09-22 15:00:00 NR 24.7335 -115.141 main 269 239 P_________P___ EP131977 24.7525 -115.142 25 -1 24.7145 -115.139 1 25 6 50
1977263N17251 1977 86 EP MM NOT_NAMED 1977-09-22 18:00:00 NR 24.8762 -114.904 main 239 219 O_________P___ jtwc_ep EP131977 24.9000 -114.900 25 -1 24.8523 -114.909 1 25 5 61
1977263N17251 1977 86 EP MM NOT_NAMED 1977-09-22 21:00:00 NR 24.9545 -114.695 main 219 210 P_________P___ EP131977 24.9700 -114.690 25 -1 24.9390 -114.699 1 25 4 71
1977263N17251 1977 86 EP MM NOT_NAMED 1977-09-23 00:00:00 NR 25.0000 -114.500 main 210 O_________O___ jtwc_ep EP131977 25.0000 -114.500 25 -1 25.0000 -114.500 6 25 4 75

IBTrACS Databaseについて

本データベースは、米国NOAAが公開する1842年以降の世界の熱帯低気圧のベストトラックデータアーカイブInternational Best Track Archive for Climate Stewardship (IBTrACS)を、ウェブで閲覧しやすい形式に変換したものです。

最終更新日:2021-10-27